Time;durP1;ratioP1;P1;durP2;ratioP2;P2;SDS_P1;SDS_P2;PMS_P1;PMS_P2;Temp;Humidity;BMP_temperature;BMP_pressure;BME280_temperature;BME280_humidity;BME280_pressure;Samples;Min_cycle;Max_cycle;Signal;HPM_P1;HPM_P2
2023/10/18 00:00:58;;;;;;;21.50;11.40;;;4.60;99.90;;;;;;5071976;28;20484;-71
2023/10/18 00:03:29;;;;;;;20.27;11.47;;;4.60;99.90;;;;;;5064196;28;21103;-71
2023/10/18 00:05:57;;;;;;;20.13;11.30;;;4.60;99.90;;;;;;5071879;28;21009;-70
2023/10/18 00:08:25;;;;;;;18.03;11.17;;;4.50;99.90;;;;;;5063730;28;20447;-70
2023/10/18 00:10:55;;;;;;;19.10;11.17;;;4.50;99.90;;;;;;5066586;28;20514;-70
2023/10/18 00:13:23;;;;;;;17.67;10.43;;;4.50;99.90;;;;;;5068819;28;20455;-70
2023/10/18 00:15:53;;;;;;;17.60;10.77;;;4.40;99.90;;;;;;5071627;28;20472;-70
2023/10/18 00:18:21;;;;;;;20.03;12.10;;;4.40;99.90;;;;;;5071600;28;20444;-70
2023/10/18 00:20:58;;;;;;;16.63;10.40;;;4.40;99.90;;;;;;5071551;28;20446;-69
2023/10/18 00:23:27;;;;;;;20.40;11.60;;;4.40;99.90;;;;;;5063757;28;20495;-70
2023/10/18 00:25:56;;;;;;;20.80;11.80;;;4.40;99.90;;;;;;5071359;28;20458;-69
2023/10/18 00:28:24;;;;;;;19.00;11.50;;;4.40;99.90;;;;;;5071493;28;20939;-70
2023/10/18 00:30:52;;;;;;;18.20;10.93;;;4.40;99.90;;;;;;5071324;28;20428;-69
2023/10/18 00:33:20;;;;;;;19.77;11.00;;;4.40;99.90;;;;;;5071288;28;20439;-69
2023/10/18 00:35:48;;;;;;;18.53;11.43;;;4.40;99.90;;;;;;5071188;28;20481;-69
2023/10/18 00:38:18;;;;;;;19.20;11.70;;;4.30;99.90;;;;;;5071109;28;20940;-71
2023/10/18 00:40:50;;;;;;;22.03;12.27;;;4.20;99.90;;;;;;5070666;28;20443;-69
2023/10/18 00:43:20;;;;;;;20.30;10.93;;;4.20;99.90;;;;;;5071072;28;20551;-68
2023/10/18 00:45:50;;;;;;;24.13;14.90;;;4.10;99.90;;;;;;5070419;28;20438;-69
2023/10/18 00:48:23;;;;;;;21.33;12.80;;;4.20;99.90;;;;;;5071259;28;20205;-69
2023/10/18 00:50:53;;;;;;;18.00;10.90;;;4.20;99.90;;;;;;5070839;28;20475;-67
2023/10/18 00:53:22;;;;;;;18.37;11.20;;;4.10;99.90;;;;;;5066470;28;20510;-69
2023/10/18 00:55:53;;;;;;;18.10;10.80;;;4.20;99.90;;;;;;5070626;28;20491;-68
2023/10/18 00:58:24;;;;;;;22.27;12.73;;;4.20;99.90;;;;;;5063479;28;21925;-69
2023/10/18 01:00:52;;;;;;;18.80;11.27;;;4.20;99.90;;;;;;5067573;28;21085;-68
2023/10/18 01:03:29;;;;;;;19.37;11.90;;;4.10;99.90;;;;;;5060303;28;20546;-69
2023/10/18 01:06:04;;;;;;;20.50;12.20;;;4.10;99.90;;;;;;5070244;28;20818;-69
2023/10/18 01:08:35;;;;;;;20.90;11.70;;;4.10;99.90;;;;;;5063283;28;20553;-68
2023/10/18 01:11:07;;;;;;;19.03;11.20;;;4.10;99.90;;;;;;5069988;28;20443;-69
2023/10/18 01:13:40;;;;;;;20.57;11.63;;;4.00;99.90;;;;;;5070717;28;20542;-69
2023/10/18 01:16:13;;;;;;;18.37;10.77;;;4.00;99.90;;;;;;5070301;28;20545;-69
2023/10/18 01:18:42;;;;;;;20.23;11.70;;;4.00;99.90;;;;;;5070633;28;20443;-69
2023/10/18 01:21:16;;;;;;;20.00;11.20;;;3.80;99.90;;;;;;5070059;28;20447;-70
2023/10/18 01:23:49;;;;;;;19.43;12.00;;;3.80;99.90;;;;;;5070123;28;20862;-69
2023/10/18 01:26:19;;;;;;;21.43;11.47;;;3.80;99.90;;;;;;5070377;28;20443;-70
2023/10/18 01:28:48;;;;;;;21.70;11.37;;;3.90;99.90;;;;;;5070494;28;20836;-69
2023/10/18 01:31:16;;;;;;;20.40;11.80;;;3.90;99.90;;;;;;5069711;28;20447;-70
2023/10/18 01:33:46;;;;;;;20.57;12.43;;;3.90;99.90;;;;;;5070008;28;20949;-68
2023/10/18 01:36:15;;;;;;;21.80;11.80;;;4.00;99.90;;;;;;5069795;28;20485;-69
2023/10/18 01:38:46;;;;;;;20.30;12.13;;;3.90;99.90;;;;;;5070046;28;20439;-69
2023/10/18 01:41:16;;;;;;;20.77;11.90;;;3.80;99.90;;;;;;5069644;28;20450;-69
2023/10/18 01:43:47;;;;;;;19.20;11.13;;;3.80;99.90;;;;;;5070018;28;20449;-69
2023/10/18 01:46:16;;;;;;;17.27;11.50;;;3.80;99.90;;;;;;5070477;28;20569;-70
2023/10/18 01:48:50;;;;;;;21.70;12.07;;;3.80;99.90;;;;;;5070513;28;21036;-70
2023/10/18 01:51:19;;;;;;;20.27;11.43;;;3.80;99.90;;;;;;5068549;28;20957;-70
2023/10/18 01:53:50;;;;;;;20.57;12.43;;;3.70;99.90;;;;;;5069919;28;20450;-67
2023/10/18 01:56:21;;;;;;;20.13;11.90;;;3.70;99.90;;;;;;5069834;28;20447;-71
2023/10/18 01:58:50;;;;;;;20.20;11.30;;;3.70;99.90;;;;;;5070571;28;20445;-70
2023/10/18 02:01:18;;;;;;;20.83;11.87;;;3.70;99.90;;;;;;5069278;28;20524;-69
2023/10/18 02:03:50;;;;;;;20.40;12.37;;;3.70;99.90;;;;;;5069508;28;20526;-72
2023/10/18 02:06:20;;;;;;;19.53;11.70;;;3.60;99.90;;;;;;5069676;28;20443;-70
2023/10/18 02:08:48;;;;;;;20.53;12.37;;;3.50;99.90;;;;;;5069765;28;20466;-70
2023/10/18 02:11:16;;;;;;;21.30;11.40;;;3.60;99.90;;;;;;5069273;28;20490;-70
2023/10/18 02:13:45;;;;;;;20.53;12.13;;;3.50;99.90;;;;;;5069787;28;20440;-67
2023/10/18 02:16:15;;;;;;;22.17;12.10;;;3.40;99.90;;;;;;5069434;28;20455;-70
2023/10/18 02:18:47;;;;;;;25.97;12.90;;;3.40;99.90;;;;;;5069548;28;20852;-70
2023/10/18 02:21:16;;;;;;;23.17;13.17;;;3.40;99.90;;;;;;5068965;28;20462;-70
2023/10/18 02:23:48;;;;;;;20.00;12.00;;;3.40;99.90;;;;;;5069419;28;20539;-71
2023/10/18 02:26:30;;;;;;;20.50;11.40;;;3.40;99.90;;;;;;5069167;28;21003;-71
2023/10/18 02:29:00;;;;;;;21.73;12.47;;;3.40;99.90;;;;;;5069007;28;20439;-69
2023/10/18 02:31:30;;;;;;;25.37;14.20;;;3.40;99.90;;;;;;5068675;28;20439;-68
2023/10/18 02:33:58;;;;;;;20.43;12.10;;;3.50;99.90;;;;;;5068590;28;20447;-68
2023/10/18 02:36:38;;;;;;;20.53;11.73;;;3.60;99.90;;;;;;5069140;28;20542;-68
2023/10/18 02:39:08;;;;;;;18.30;11.13;;;3.60;99.90;;;;;;5069006;28;20439;-65
2023/10/18 02:41:38;;;;;;;20.63;11.90;;;3.40;99.90;;;;;;5069053;28;20450;-68
2023/10/18 02:44:10;;;;;;;21.10;12.23;;;3.50;99.90;;;;;;5068773;28;21119;-70
2023/10/18 02:46:40;;;;;;;22.67;11.73;;;3.40;99.90;;;;;;5069424;28;20437;-71
2023/10/18 02:49:08;;;;;;;21.00;12.23;;;3.40;99.90;;;;;;5069284;28;20435;-70
2023/10/18 02:51:36;;;;;;;22.67;13.27;;;3.30;99.90;;;;;;5069276;28;20479;-71
2023/10/18 02:54:16;;;;;;;22.70;13.50;;;3.30;99.90;;;;;;5069282;28;20530;-70
2023/10/18 02:56:50;;;;;;;21.80;13.00;;;3.30;99.90;;;;;;5070041;28;20435;-71
2023/10/18 02:59:20;;;;;;;22.47;13.43;;;3.30;99.90;;;;;;5069409;28;20489;-70
2023/10/18 03:01:52;;;;;;;23.97;14.10;;;3.30;99.90;;;;;;5068598;28;20435;-71
2023/10/18 03:04:22;;;;;;;19.80;13.17;;;3.30;99.90;;;;;;5068762;28;20490;-70
2023/10/18 03:06:51;;;;;;;27.30;12.83;;;3.40;99.90;;;;;;5069117;28;20442;-70
2023/10/18 03:09:38;;;;;;;19.47;12.40;;;3.60;99.90;;;;;;5068542;28;20443;-70
2023/10/18 03:12:13;;;;;;;22.77;12.77;;;3.50;99.90;;;;;;5068444;28;20455;-70
2023/10/18 03:14:54;;;;;;;21.50;12.00;;;3.50;99.90;;;;;;5068659;28;20545;-70
2023/10/18 03:17:24;;;;;;;22.33;13.60;;;3.50;99.90;;;;;;5068790;28;20446;-70
2023/10/18 03:19:55;;;;;;;22.23;12.23;;;3.50;99.90;;;;;;5068476;28;20783;-70
2023/10/18 03:22:26;;;;;;;26.40;12.43;;;3.50;99.90;;;;;;5068166;28;20435;-70
2023/10/18 03:24:55;;;;;;;21.80;12.80;;;3.50;99.90;;;;;;5068456;28;20466;-70
2023/10/18 03:27:24;;;;;;;22.80;12.80;;;3.60;99.90;;;;;;5068453;28;20449;-71
2023/10/18 03:29:57;;;;;;;24.60;13.50;;;3.50;99.90;;;;;;5068248;28;20439;-70
2023/10/18 03:32:27;;;;;;;22.73;12.73;;;3.50;99.90;;;;;;5068259;28;20474;-71
2023/10/18 03:34:56;;;;;;;25.13;13.77;;;3.50;99.90;;;;;;5068398;28;20461;-71
2023/10/18 03:37:25;;;;;;;22.33;13.20;;;3.40;99.90;;;;;;5068558;28;20787;-70
2023/10/18 03:39:53;;;;;;;24.90;14.03;;;3.40;99.90;;;;;;5068276;28;20443;-70
2023/10/18 03:42:31;;;;;;;22.80;12.80;;;3.30;99.90;;;;;;5067771;28;20447;-71
2023/10/18 03:45:00;;;;;;;24.47;13.03;;;3.30;99.90;;;;;;5068033;28;20516;-72
2023/10/18 03:47:36;;;;;;;27.35;17.10;;;3.30;99.90;;;;;;5067196;28;20850;-70
2023/10/18 03:50:08;;;;;;;24.53;13.63;;;3.20;99.90;;;;;;5068280;28;20205;-68
2023/10/18 03:52:38;;;;;;;21.67;12.43;;;3.20;99.90;;;;;;5067373;28;20440;-68
2023/10/18 03:55:12;;;;;;;22.60;13.20;;;3.30;99.90;;;;;;5067898;28;20470;-69
2023/10/18 03:57:41;;;;;;;20.23;11.70;;;3.30;99.90;;;;;;5061722;28;20537;-65
2023/10/18 04:00:36;;;;;;;23.30;13.13;;;3.40;99.90;;;;;;5068065;28;20450;-69
2023/10/18 04:03:10;;;;;;;20.27;11.20;;;3.40;99.90;;;;;;5068134;28;20483;-67
2023/10/18 04:05:42;;;;;;;21.00;12.20;;;3.30;99.90;;;;;;5060848;28;20471;-69
2023/10/18 04:08:14;;;;;;;20.30;12.23;;;3.40;99.90;;;;;;5057156;28;20455;-68
2023/10/18 04:10:43;;;;;;;25.83;13.57;;;3.30;99.90;;;;;;5067637;28;20443;-68
2023/10/18 04:13:14;;;;;;;26.47;14.17;;;3.20;99.90;;;;;;5067141;28;20515;-68
2023/10/18 04:15:45;;;;;;;23.60;13.60;;;3.20;99.90;;;;;;5070955;28;20500;-68
2023/10/18 04:18:25;;;;;;;23.13;13.50;;;3.20;99.90;;;;;;5071416;28;20508;-69
2023/10/18 04:20:54;;;;;;;26.03;13.43;;;3.20;99.90;;;;;;5069748;28;20807;-68
2023/10/18 04:23:25;;;;;;;23.90;14.70;;;3.20;99.90;;;;;;5070932;28;20482;-68
2023/10/18 04:26:01;;;;;;;22.53;13.07;;;3.20;99.90;;;;;;5071357;28;20956;-69
2023/10/18 04:28:30;;;;;;;22.53;12.90;;;3.30;99.90;;;;;;5071068;28;20892;-71
2023/10/18 04:31:00;;;;;;;22.70;13.53;;;3.20;99.90;;;;;;5070532;28;20458;-70
2023/10/18 04:33:36;;;;;;;23.90;12.40;;;3.20;99.90;;;;;;5071012;28;20530;-70
2023/10/18 04:36:10;;;;;;;20.33;12.57;;;3.30;99.90;;;;;;5071517;28;20520;-70
2023/10/18 04:38:42;;;;;;;18.40;12.07;;;3.20;99.90;;;;;;5071460;28;20539;-71
2023/10/18 04:41:22;;;;;;;25.03;13.10;;;3.10;99.90;;;;;;5070705;28;20445;-71
2023/10/18 04:43:51;;;;;;;21.23;12.90;;;3.10;99.90;;;;;;5071134;28;20557;-71
2023/10/18 04:46:25;;;;;;;23.73;13.10;;;3.10;99.90;;;;;;5071191;28;20487;-70
2023/10/18 04:49:16;;;;;;;21.47;11.43;;;3.20;99.90;;;;;;5071403;28;20517;-70
2023/10/18 04:51:48;;;;;;;22.93;12.73;;;3.30;99.90;;;;;;5070813;28;20863;-71
2023/10/18 04:54:17;;;;;;;22.27;12.37;;;3.30;99.90;;;;;;5070673;28;21102;-68
2023/10/18 04:56:46;;;;;;;22.60;12.37;;;3.20;99.90;;;;;;5071004;28;21020;-69
2023/10/18 04:59:29;;;;;;;20.90;11.87;;;3.10;99.90;;;;;;5070602;28;20443;-69
2023/10/18 05:01:57;;;;;;;26.67;13.17;;;3.30;99.90;;;;;;5070316;28;21017;-70
2023/10/18 05:04:33;;;;;;;22.07;13.03;;;3.20;99.90;;;;;;5060952;28;20564;-70
2023/10/18 05:07:04;;;;;;;25.70;14.33;;;3.20;99.90;;;;;;5062447;28;20978;-69
2023/10/18 05:09:41;;;;;;;25.37;14.47;;;3.10;99.90;;;;;;5064073;28;20443;-69
2023/10/18 05:12:27;;;;;;;23.97;13.17;;;3.10;99.90;;;;;;5070183;28;20520;-70
2023/10/18 05:15:09;;;;;;;20.70;12.70;;;3.20;99.90;;;;;;5064455;28;20986;-69
2023/10/18 05:17:42;;;;;;;25.13;14.53;;;3.20;99.90;;;;;;5069666;28;20446;-69
2023/10/18 05:20:41;;;;;;;22.67;12.77;;;3.20;99.90;;;;;;5070239;28;20467;-69
2023/10/18 05:23:10;;;;;;;26.30;13.53;;;3.10;99.90;;;;;;5070421;28;20787;-69
2023/10/18 05:25:45;;;;;;;21.10;12.63;;;3.10;99.90;;;;;;5070225;28;20461;-69
2023/10/18 05:28:17;;;;;;;27.03;12.70;;;3.20;99.90;;;;;;5070341;28;20948;-70
2023/10/18 05:36:29;;;;;;;22.37;12.57;;;3.20;99.90;;;;;;5069955;28;20470;-70
2023/10/18 05:39:17;;;;;;;24.37;13.23;;;3.30;99.90;;;;;;5070378;28;20447;-70
2023/10/18 05:41:45;;;;;;;24.57;13.83;;;3.10;99.90;;;;;;5070083;28;20442;-69
2023/10/18 05:44:13;;;;;;;25.03;14.60;;;2.80;99.90;;;;;;5062159;28;20520;-68
2023/10/18 05:46:42;;;;;;;22.27;13.67;;;3.00;99.90;;;;;;5068978;28;20452;-68
2023/10/18 05:49:16;;;;;;;25.43;13.70;;;3.00;99.90;;;;;;5069696;28;20451;-70
2023/10/18 05:51:52;;;;;;;23.70;12.57;;;3.00;99.90;;;;;;5069617;28;20439;-69
2023/10/18 05:54:21;;;;;;;24.97;12.60;;;2.90;99.90;;;;;;5069888;28;20467;-68
2023/10/18 05:56:53;;;;;;;23.90;14.17;;;2.90;99.90;;;;;;5070387;28;20439;-66
2023/10/18 05:59:33;;;;;;;22.60;13.17;;;3.10;99.90;;;;;;5069572;28;20453;-68
2023/10/18 06:02:09;;;;;;;23.50;13.63;;;3.00;99.90;;;;;;5069379;28;20530;-66
2023/10/18 06:04:42;;;;;;;22.70;13.03;;;3.20;99.90;;;;;;5069965;28;20504;-68
2023/10/18 06:07:13;;;;;;;20.53;11.97;;;3.10;99.90;;;;;;5069870;28;20443;-68
2023/10/18 06:09:48;;;;;;;22.33;12.77;;;3.00;99.90;;;;;;5069645;28;20925;-69
2023/10/18 06:12:22;;;;;;;25.03;14.27;;;3.10;99.90;;;;;;5069032;28;20530;-69
2023/10/18 06:14:52;;;;;;;23.33;13.80;;;3.20;99.90;;;;;;5069263;28;20455;-68
2023/10/18 06:17:22;;;;;;;24.13;14.63;;;3.20;99.90;;;;;;5069521;28;20538;-68
2023/10/18 06:19:51;;;;;;;23.00;13.37;;;3.20;99.90;;;;;;5069388;28;20454;-69
2023/10/18 06:22:38;;;;;;;23.83;13.30;;;3.20;99.90;;;;;;5069164;28;20531;-70
2023/10/18 06:25:09;;;;;;;26.47;15.87;;;3.20;99.90;;;;;;5069325;28;20527;-69
2023/10/18 06:27:40;;;;;;;24.67;15.27;;;3.20;99.90;;;;;;5069667;28;21004;-68
2023/10/18 06:30:14;;;;;;;25.47;14.70;;;3.20;99.90;;;;;;5062617;28;20459;-68
2023/10/18 06:32:43;;;;;;;27.93;14.70;;;3.30;99.90;;;;;;5068881;28;20446;-71
2023/10/18 06:35:16;;;;;;;27.20;14.80;;;3.30;99.90;;;;;;5069058;28;20528;-69
2023/10/18 06:37:45;;;;;;;30.13;15.33;;;3.40;99.90;;;;;;5068677;28;20453;-68
2023/10/18 06:40:24;;;;;;;27.00;14.67;;;3.40;99.90;;;;;;5069327;28;20526;-70
2023/10/18 06:42:52;;;;;;;25.40;15.00;;;3.50;99.90;;;;;;5069074;28;20443;-70
2023/10/18 06:45:25;;;;;;;25.17;14.77;;;3.70;99.90;;;;;;5069126;28;20482;-68
2023/10/18 06:47:54;;;;;;;33.03;14.93;;;3.90;99.90;;;;;;5069255;28;20443;-67
2023/10/18 06:50:26;;;;;;;25.17;14.20;;;4.00;99.90;;;;;;5069276;28;20474;-70
2023/10/18 06:52:58;;;;;;;25.20;14.50;;;4.10;99.90;;;;;;5065689;28;20455;-71
2023/10/18 06:55:41;;;;;;;26.70;15.83;;;4.10;99.90;;;;;;5068848;28;20468;-67
2023/10/18 06:58:13;;;;;;;25.70;14.83;;;4.20;99.90;;;;;;5069031;28;20453;-68
2023/10/18 07:00:46;;;;;;;25.67;15.10;;;4.20;99.90;;;;;;5068938;28;20465;-69
2023/10/18 07:03:17;;;;;;;25.30;15.00;;;4.30;99.90;;;;;;5067689;28;20447;-69
2023/10/18 07:05:49;;;;;;;21.43;12.30;;;4.50;99.90;;;;;;5068447;28;20485;-71
2023/10/18 07:08:25;;;;;;;27.20;14.10;;;4.80;99.90;;;;;;5068854;28;20450;-69
2023/10/18 07:10:56;;;;;;;25.73;16.47;;;4.90;99.90;;;;;;5068422;28;20455;-69
2023/10/18 07:13:47;;;;;;;25.00;13.90;;;4.90;99.90;;;;;;5061439;28;20444;-69
2023/10/18 07:16:24;;;;;;;24.60;15.03;;;5.00;99.90;;;;;;5068864;28;20588;-69
2023/10/18 07:19:06;;;;;;;25.77;13.57;;;5.30;99.90;;;;;;5068984;28;20466;-70
2023/10/18 07:21:35;;;;;;;26.87;16.30;;;5.40;99.90;;;;;;5068436;28;20441;-67
2023/10/18 07:24:09;;;;;;;22.80;14.00;;;5.50;99.90;;;;;;5068596;28;20448;-70
2023/10/18 07:26:38;;;;;;;22.50;13.77;;;5.60;99.90;;;;;;5068510;28;21041;-69
2023/10/18 07:29:07;;;;;;;26.70;14.10;;;5.60;99.90;;;;;;5068663;28;20449;-69
2023/10/18 07:31:38;;;;;;;20.63;12.97;;;5.80;99.90;;;;;;5068168;28;20449;-68
2023/10/18 07:34:08;;;;;;;21.07;14.00;;;5.90;99.90;;;;;;5068689;28;20454;-70
2023/10/18 07:36:38;;;;;;;23.27;14.63;;;6.20;99.90;;;;;;5068691;28;20861;-69
2023/10/18 07:39:11;;;;;;;22.10;14.23;;;6.30;99.90;;;;;;5068813;28;20457;-69
2023/10/18 07:41:40;;;;;;;22.87;13.60;;;6.30;99.90;;;;;;5060137;28;20497;-69
2023/10/18 07:44:08;;;;;;;24.40;15.47;;;6.40;99.90;;;;;;5068198;28;20960;-69
2023/10/18 07:46:39;;;;;;;22.97;15.07;;;6.50;99.90;;;;;;5068262;28;20489;-70
2023/10/18 07:49:13;;;;;;;26.10;13.40;;;6.60;99.90;;;;;;5071130;28;20860;-67
2023/10/18 07:51:48;;;;;;;26.60;15.53;;;6.90;99.90;;;;;;5072311;28;20538;-68
2023/10/18 07:54:20;;;;;;;21.00;13.80;;;6.90;99.90;;;;;;5072107;28;20591;-67
2023/10/18 07:56:54;;;;;;;21.37;14.33;;;7.10;99.90;;;;;;5072334;28;20443;-67
2023/10/18 07:59:29;;;;;;;23.20;14.23;;;7.30;99.90;;;;;;5072283;28;20447;-67
2023/10/18 08:02:12;;;;;;;23.30;13.80;;;7.50;99.90;;;;;;5072122;28;20518;-67
2023/10/18 08:04:42;;;;;;;22.53;13.60;;;7.60;99.90;;;;;;5064061;28;20490;-69
2023/10/18 08:07:15;;;;;;;21.87;13.53;;;7.60;99.90;;;;;;5072112;28;20441;-68
2023/10/18 08:09:48;;;;;;;27.07;15.40;;;7.50;99.90;;;;;;5072253;28;20443;-69
2023/10/18 08:12:29;;;;;;;21.50;13.33;;;7.50;99.90;;;;;;5072080;28;21349;-69
2023/10/18 08:14:57;;;;;;;22.50;14.10;;;7.50;99.90;;;;;;5071960;28;20477;-69
2023/10/18 08:17:42;;;;;;;23.37;14.67;;;7.60;99.90;;;;;;5071871;28;20447;-69
2023/10/18 08:20:40;;;;;;;21.27;13.00;;;7.60;99.90;;;;;;5072230;28;20449;-69
2023/10/18 08:23:19;;;;;;;22.30;13.97;;;7.90;99.90;;;;;;5071417;28;20550;-69
2023/10/18 08:25:51;;;;;;;21.10;13.37;;;8.20;99.90;;;;;;5071802;28;20510;-69
2023/10/18 08:28:19;;;;;;;23.03;14.10;;;8.30;99.90;;;;;;5072088;28;20976;-69
2023/10/18 08:33:29;;;;;;;23.37;15.03;;;8.40;99.90;;;;;;5071907;28;20449;-68
2023/10/18 08:36:06;;;;;;;20.60;13.60;;;8.70;99.90;;;;;;5071614;28;20464;-66
2023/10/18 08:38:35;;;;;;;24.03;14.40;;;8.80;99.90;;;;;;5071423;28;20538;-68
2023/10/18 08:41:15;;;;;;;21.03;14.47;;;9.00;99.90;;;;;;5071221;28;20444;-69
2023/10/18 08:43:53;;;;;;;23.83;16.70;;;9.20;99.90;;;;;;5071601;28;20440;-67
2023/10/18 08:46:26;;;;;;;24.10;15.50;;;9.30;99.90;;;;;;5071210;28;20477;-68
2023/10/18 08:48:56;;;;;;;21.00;14.20;;;9.40;99.90;;;;;;5071532;28;20540;-67
2023/10/18 08:51:27;;;;;;;19.30;13.40;;;9.40;99.90;;;;;;5071058;28;20498;-68
2023/10/18 08:53:58;;;;;;;22.43;13.40;;;9.40;99.90;;;;;;5071373;28;20466;-69
2023/10/18 08:56:32;;;;;;;21.63;14.43;;;9.50;99.90;;;;;;5071537;28;20912;-67
2023/10/18 08:59:11;;;;;;;23.87;15.40;;;9.50;99.90;;;;;;5071332;28;20467;-70
2023/10/18 09:02:01;;;;;;;20.50;13.97;;;9.50;99.90;;;;;;5070158;28;20930;-69
2023/10/18 09:04:28;;;;;;;19.80;14.50;;;9.50;99.90;;;;;;5070775;28;20476;-70
2023/10/18 09:06:59;;;;;;;22.30;14.70;;;9.60;99.90;;;;;;5071351;28;20486;-69
2023/10/18 09:09:35;;;;;;;22.33;14.60;;;9.70;99.90;;;;;;5070911;28;20474;-70
2023/10/18 09:12:14;;;;;;;21.70;14.20;;;9.70;99.90;;;;;;5070692;28;20458;-69
2023/10/18 09:14:50;;;;;;;20.90;13.40;;;9.80;99.90;;;;;;5062653;28;20465;-68
2023/10/18 09:17:22;;;;;;;20.57;13.87;;;10.00;99.90;;;;;;5070860;28;20451;-68
2023/10/18 09:19:55;;;;;;;19.77;14.10;;;10.50;99.90;;;;;;5070840;28;20812;-69
2023/10/18 09:22:23;;;;;;;19.10;13.50;;;10.80;99.90;;;;;;5070631;28;20527;-70
2023/10/18 09:24:54;;;;;;;20.10;13.80;;;11.00;99.90;;;;;;5070893;28;20460;-68
2023/10/18 09:27:27;;;;;;;21.40;13.17;;;11.30;99.90;;;;;;5070727;28;20508;-68
2023/10/18 09:29:55;;;;;;;21.83;14.27;;;11.50;99.90;;;;;;5070615;28;20462;-68
2023/10/18 09:32:33;;;;;;;21.03;12.73;;;11.70;99.90;;;;;;5070319;28;20525;-69
2023/10/18 09:35:07;;;;;;;20.53;14.17;;;11.90;99.90;;;;;;5064586;28;20471;-69
2023/10/18 09:37:36;;;;;;;21.93;14.40;;;12.10;99.90;;;;;;5069293;28;20981;-69
2023/10/18 09:40:06;;;;;;;18.73;13.37;;;12.30;99.90;;;;;;5070183;28;20453;-69
2023/10/18 09:42:35;;;;;;;25.17;14.00;;;12.40;99.90;;;;;;5069863;28;20480;-69
2023/10/18 09:45:03;;;;;;;19.60;13.93;;;12.50;99.90;;;;;;5070426;28;20470;-69
2023/10/18 09:47:31;;;;;;;21.93;15.60;;;12.70;99.90;;;;;;5070375;28;20479;-69
2023/10/18 09:50:06;;;;;;;19.20;14.10;;;13.10;99.90;;;;;;5070773;28;20446;-69
2023/10/18 09:52:47;;;;;;;19.87;13.00;;;13.60;99.90;;;;;;5070380;28;20921;-71
2023/10/18 09:55:20;;;;;;;20.00;12.63;;;14.00;99.90;;;;;;5070150;28;20459;-67
2023/10/18 09:57:59;;;;;;;19.83;13.30;;;14.10;99.90;;;;;;5062692;28;20926;-69
2023/10/18 10:00:29;;;;;;;18.30;12.57;;;14.40;99.90;;;;;;5069875;28;20814;-68
2023/10/18 10:02:58;;;;;;;18.77;12.60;;;14.20;99.90;;;;;;5069708;28;20461;-69
2023/10/18 10:05:27;;;;;;;16.83;12.50;;;14.20;99.90;;;;;;5069897;28;20525;-70
2023/10/18 10:07:55;;;;;;;19.20;12.30;;;14.20;99.90;;;;;;5069913;28;20578;-69
2023/10/18 10:10:42;;;;;;;17.27;11.60;;;14.40;99.90;;;;;;5070003;28;20518;-70
2023/10/18 10:13:18;;;;;;;16.13;10.97;;;14.40;99.90;;;;;;5068798;28;20445;-69
2023/10/18 10:15:58;;;;;;;16.70;10.30;;;14.60;99.90;;;;;;5070099;28;20472;-69
2023/10/18 10:18:30;;;;;;;16.27;11.17;;;15.00;99.90;;;;;;5070060;28;20442;-69
2023/10/18 10:21:02;;;;;;;15.67;9.87;;;15.30;99.90;;;;;;5070060;28;20578;-67
2023/10/18 10:23:33;;;;;;;16.50;10.47;;;15.70;99.90;;;;;;5069994;28;20447;-68
2023/10/18 10:26:10;;;;;;;18.60;10.60;;;15.90;99.90;;;;;;5069586;28;20467;-69
2023/10/18 10:29:33;;;;;;;16.20;9.80;;;16.10;99.90;;;;;;5063570;28;20532;-69
2023/10/18 10:32:04;;;;;;;14.13;8.80;;;16.30;99.90;;;;;;5068836;28;20451;-69
2023/10/18 10:34:37;;;;;;;14.20;9.00;;;16.50;99.90;;;;;;5069451;28;20867;-69
2023/10/18 10:37:11;;;;;;;13.30;8.20;;;16.60;99.90;;;;;;5069558;28;20442;-71
2023/10/18 10:39:45;;;;;;;12.83;7.77;;;16.70;99.90;;;;;;5069281;28;21012;-70
2023/10/18 10:42:28;;;;;;;13.73;8.53;;;16.80;99.90;;;;;;5069418;28;20447;-69
2023/10/18 10:45:09;;;;;;;12.60;7.97;;;16.80;99.90;;;;;;5069069;28;20457;-66
2023/10/18 10:47:45;;;;;;;14.30;7.40;;;16.90;99.90;;;;;;5068983;28;20486;-68
2023/10/18 10:50:45;;;;;;;13.80;7.57;;;17.40;97.60;;;;;;5069316;28;20446;-68
2023/10/18 10:53:29;;;;;;;12.63;7.63;;;17.40;97.40;;;;;;5064626;28;20446;-67
2023/10/18 10:55:57;;;;;;;12.37;6.93;;;17.60;96.50;;;;;;5061410;28;20467;-68
2023/10/18 10:58:31;;;;;;;12.00;6.73;;;18.30;96.10;;;;;;5069096;28;20447;-69
2023/10/18 11:01:04;;;;;;;11.87;6.57;;;19.20;92.30;;;;;;5068751;28;20443;-68
2023/10/18 11:03:52;;;;;;;10.60;5.83;;;20.00;92.00;;;;;;5068596;28;20449;-69
2023/10/18 11:06:23;;;;;;;10.30;6.57;;;21.10;86.00;;;;;;5068522;28;20466;-68
2023/10/18 11:08:53;;;;;;;11.80;6.60;;;22.00;77.50;;;;;;5069230;28;20515;-68
2023/10/18 11:11:22;;;;;;;11.17;6.67;;;22.10;75.20;;;;;;5068283;28;20451;-68
2023/10/18 11:13:51;;;;;;;11.73;6.70;;;21.50;72.80;;;;;;5068564;28;20446;-69
2023/10/18 11:16:20;;;;;;;10.50;6.30;;;20.90;72.80;;;;;;5069008;28;20450;-68
2023/10/18 11:18:49;;;;;;;10.53;6.27;;;20.30;71.80;;;;;;5061061;28;20439;-69
2023/10/18 11:21:21;;;;;;;12.47;6.67;;;19.70;71.40;;;;;;5068514;28;20501;-69
2023/10/18 11:23:57;;;;;;;10.27;5.73;;;19.40;74.40;;;;;;5068348;28;20458;-69
2023/10/18 11:26:26;;;;;;;9.67;5.40;;;20.80;73.90;;;;;;5068534;28;20877;-68
2023/10/18 11:28:56;;;;;;;9.87;5.47;;;21.30;68.10;;;;;;5068687;28;20539;-70
2023/10/18 11:31:28;;;;;;;12.27;6.37;;;21.40;71.20;;;;;;5067476;28;20497;-69
2023/10/18 11:34:05;;;;;;;11.73;6.30;;;21.30;68.80;;;;;;5061506;28;20546;-69
2023/10/18 11:36:33;;;;;;;9.93;5.50;;;20.70;70.50;;;;;;5060661;28;20455;-69
2023/10/18 11:39:18;;;;;;;10.20;5.60;;;20.00;67.80;;;;;;5061833;28;20439;-68
2023/10/18 11:41:49;;;;;;;10.77;5.97;;;19.40;71.20;;;;;;5059950;28;20496;-67
2023/10/18 11:44:27;;;;;;;10.53;5.60;;;19.00;74.20;;;;;;5059241;28;20494;-68
2023/10/18 11:47:02;;;;;;;10.30;5.20;;;18.60;75.30;;;;;;5061494;28;20478;-68
2023/10/18 11:49:37;;;;;;;9.73;5.70;;;18.30;77.90;;;;;;5060097;28;20435;-68
2023/10/18 11:52:12;;;;;;;9.10;5.10;;;18.20;77.70;;;;;;5060894;28;20874;-69
2023/10/18 11:54:43;;;;;;;10.80;5.43;;;18.20;77.80;;;;;;5060556;28;20517;-70
2023/10/18 11:57:26;;;;;;;9.37;4.70;;;18.30;77.10;;;;;;5060037;28;20562;-69
2023/10/18 11:59:55;;;;;;;8.90;4.60;;;18.50;74.10;;;;;;5061091;28;20439;-69
2023/10/18 12:02:27;;;;;;;11.30;4.50;;;18.40;75.70;;;;;;5058530;28;20451;-69
2023/10/18 12:04:57;;;;;;;9.70;4.60;;;18.50;76.80;;;;;;5061493;28;20980;-68
2023/10/18 12:07:26;;;;;;;10.40;4.67;;;18.40;74.30;;;;;;5058939;28;20495;-69
2023/10/18 12:09:55;;;;;;;9.20;4.47;;;18.00;73.70;;;;;;5062071;28;20473;-69
2023/10/18 12:12:24;;;;;;;8.60;4.10;;;17.80;77.40;;;;;;5058084;28;20444;-69
2023/10/18 12:14:52;;;;;;;9.53;4.40;;;17.80;79.10;;;;;;5061568;28;20534;-70
2023/10/18 12:17:21;;;;;;;10.07;4.43;;;17.60;81.30;;;;;;5057591;28;20497;-69
2023/10/18 12:19:50;;;;;;;9.70;4.00;;;17.50;80.10;;;;;;5054972;28;20487;-70
2023/10/18 12:22:18;;;;;;;9.43;4.30;;;17.50;81.60;;;;;;5054944;28;20447;-69
2023/10/18 12:24:46;;;;;;;9.57;4.20;;;17.40;80.50;;;;;;5059974;28;20463;-69
2023/10/18 12:27:33;;;;;;;9.20;4.30;;;17.20;82.70;;;;;;5059176;28;20533;-69
2023/10/18 12:30:09;;;;;;;8.43;3.80;;;17.10;84.60;;;;;;5060822;28;20819;-69
2023/10/18 12:32:57;;;;;;;10.93;4.30;;;17.00;85.90;;;;;;5057397;28;20442;-69
2023/10/18 12:35:28;;;;;;;8.27;3.70;;;17.00;85.80;;;;;;5059008;28;20463;-69
2023/10/18 12:37:57;;;;;;;9.80;4.43;;;16.90;84.70;;;;;;5064582;28;20439;-69
2023/10/18 12:40:32;;;;;;;9.20;4.60;;;16.90;84.80;;;;;;5061334;28;20459;-68
2023/10/18 12:43:05;;;;;;;8.17;3.67;;;16.90;84.10;;;;;;5063732;28;20954;-69
2023/10/18 12:45:41;;;;;;;9.47;4.00;;;16.90;83.60;;;;;;5062693;28;21081;-69
2023/10/18 12:48:10;;;;;;;9.37;3.90;;;17.00;80.90;;;;;;5062928;28;20481;-71
2023/10/18 12:50:44;;;;;;;8.93;3.87;;;17.00;82.40;;;;;;5063158;28;20443;-69
2023/10/18 12:53:36;;;;;;;8.83;3.90;;;16.90;81.70;;;;;;5061921;28;20478;-68
2023/10/18 12:56:30;;;;;;;9.17;3.77;;;16.90;82.10;;;;;;5062355;28;20550;-69
2023/10/18 12:59:22;;;;;;;8.97;3.40;;;16.90;84.70;;;;;;5063845;28;20436;-69
2023/10/18 13:01:58;;;;;;;9.10;3.80;;;17.00;83.60;;;;;;5063923;28;20917;-68
2023/10/18 13:04:25;;;;;;;10.10;3.53;;;17.00;84.20;;;;;;5060106;28;20475;-68
2023/10/18 13:06:54;;;;;;;9.00;3.40;;;17.10;85.20;;;;;;5063748;28;20447;-69
2023/10/18 13:09:22;;;;;;;9.80;3.33;;;17.10;83.20;;;;;;5060427;28;20533;-68
2023/10/18 13:12:00;;;;;;;8.90;3.67;;;17.20;83.00;;;;;;5066506;28;20957;-69
2023/10/18 13:14:33;;;;;;;10.30;4.00;;;17.10;82.80;;;;;;5056181;28;20539;-68
2023/10/18 13:17:05;;;;;;;8.10;3.67;;;17.10;80.50;;;;;;5057560;28;20962;-69